Time;durP1;ratioP1;P1;durP2;ratioP2;P2;SDS_P1;SDS_P2;PMS_P1;PMS_P2;Temp;Humidity;BMP_temperature;BMP_pressure;BME280_temperature;BME280_humidity;BME280_pressure;Samples;Min_cycle;Max_cycle;Signal;HPM_P1;HPM_P2
2022/02/07 00:01:48;;;;;;;8.93;5.78;;;9.00;99.90;;;;;;5047130;28;20636;-64
2022/02/07 00:04:20;;;;;;;16.35;11.45;;;9.00;99.90;;;;;;5044844;28;20537;-63
2022/02/07 00:06:46;;;;;;;6.03;3.83;;;9.00;99.90;;;;;;5059367;28;20240;-63
2022/02/07 00:09:13;;;;;;;3.10;2.60;;;8.90;99.90;;;;;;5063832;28;20225;-63
2022/02/07 00:11:41;;;;;;;3.58;2.22;;;8.90;99.90;;;;;;5051085;28;20227;-63
2022/02/07 00:14:08;;;;;;;7.78;5.20;;;8.90;99.90;;;;;;5052054;28;20547;-64
2022/02/07 00:16:37;;;;;;;4.03;3.60;;;8.80;99.90;;;;;;5051608;28;20225;-63
2022/02/07 00:19:05;;;;;;;3.70;2.25;;;8.80;99.90;;;;;;5055129;28;20575;-63
2022/02/07 00:21:32;;;;;;;3.72;2.83;;;8.70;99.90;;;;;;5055049;28;20233;-64
2022/02/07 00:23:59;;;;;;;5.05;2.92;;;8.70;99.90;;;;;;5055538;28;20406;-63
2022/02/07 00:26:26;;;;;;;2.28;1.90;;;8.60;99.90;;;;;;5055078;28;20351;-63
2022/02/07 00:28:54;;;;;;;5.00;3.25;;;8.60;99.90;;;;;;5055337;28;20221;-63
2022/02/07 00:31:21;;;;;;;2.03;1.20;;;8.50;99.90;;;;;;5055737;28;20256;-63
2022/02/07 00:33:48;;;;;;;3.80;3.30;;;8.40;99.90;;;;;;5054771;28;20221;-63
2022/02/07 00:36:17;;;;;;;2.05;1.25;;;8.20;99.90;;;;;;5055564;28;20222;-64
2022/02/07 00:38:47;;;;;;;2.10;1.73;;;8.30;99.90;;;;;;5054739;28;20239;-65
2022/02/07 00:41:18;;;;;;;2.90;2.42;;;8.20;99.90;;;;;;5055149;28;20231;-64
2022/02/07 00:43:47;;;;;;;2.38;1.60;;;8.10;99.90;;;;;;5054933;28;20225;-64
2022/02/07 00:46:22;;;;;;;2.28;2.03;;;8.20;99.90;;;;;;5055125;28;20224;-64
2022/02/07 00:48:49;;;;;;;3.95;1.90;;;8.10;99.90;;;;;;5055108;28;20225;-64
2022/02/07 00:51:17;;;;;;;4.50;3.50;;;8.10;99.90;;;;;;5052280;28;20236;-64
2022/02/07 00:53:43;;;;;;;1.65;1.25;;;8.10;99.90;;;;;;5054695;28;20225;-64
2022/02/07 00:56:10;;;;;;;3.67;1.80;;;8.10;99.90;;;;;;5055225;28;20221;-64
2022/02/07 00:58:37;;;;;;;3.13;1.85;;;8.10;99.90;;;;;;5054270;28;20712;-64
2022/02/07 01:01:04;;;;;;;3.10;2.10;;;8.20;99.90;;;;;;5054937;28;20236;-64
2022/02/07 01:03:32;;;;;;;2.58;2.35;;;8.10;99.90;;;;;;5054400;28;20221;-64
2022/02/07 01:05:59;;;;;;;2.92;2.33;;;8.10;99.90;;;;;;5054844;28;20227;-64
2022/02/07 01:08:36;;;;;;;3.47;1.77;;;8.10;99.90;;;;;;5054408;28;20244;-64
2022/02/07 01:11:11;;;;;;;6.93;4.35;;;8.10;99.90;;;;;;5054783;28;20326;-64
2022/02/07 01:13:54;;;;;;;2.53;1.80;;;8.10;99.90;;;;;;5074265;28;20223;-64
2022/02/07 01:16:41;;;;;;;5.78;2.22;;;8.00;99.90;;;;;;5074762;28;20235;-64
2022/02/07 01:19:35;;;;;;;2.65;2.10;;;8.00;99.90;;;;;;5074552;28;20285;-64
2022/02/07 01:47:15;;;;;;;2.15;1.67;;;7.90;99.90;;;;;;5039017;28;20905;-64
2022/02/07 01:50:22;;;;;;;2.35;1.10;;;7.90;99.90;;;;;;5051026;28;20217;-63
2022/02/07 01:53:02;;;;;;;1.80;1.15;;;7.90;99.90;;;;;;5050062;28;20559;-63
2022/02/07 01:55:37;;;;;;;4.90;1.55;;;7.80;99.90;;;;;;5053432;28;20300;-64
2022/02/07 01:58:04;;;;;;;4.35;2.03;;;7.80;99.90;;;;;;5053583;28;20221;-64
2022/02/07 02:00:31;;;;;;;1.90;1.35;;;7.70;99.90;;;;;;5051603;28;20229;-63
2022/02/07 02:02:59;;;;;;;4.45;2.17;;;7.70;99.90;;;;;;5053696;28;20216;-63
2022/02/07 02:05:30;;;;;;;1.95;1.55;;;7.70;99.90;;;;;;5053324;28;20308;-64
2022/02/07 02:08:00;;;;;;;1.55;1.02;;;7.80;99.90;;;;;;5053502;28;20249;-63
2022/02/07 02:10:29;;;;;;;2.42;1.40;;;7.70;99.90;;;;;;5053000;28;20671;-62
2022/02/07 02:13:04;;;;;;;3.28;1.25;;;7.70;99.90;;;;;;5053377;28;20589;-64
2022/02/07 02:15:39;;;;;;;6.75;1.55;;;7.70;99.90;;;;;;5052585;28;20308;-64
2022/02/07 02:18:52;;;;;;;4.50;1.70;;;7.70;99.90;;;;;;5051970;28;20231;-64
2022/02/07 02:38:01;;;;;;;2.92;1.80;;;7.50;99.90;;;;;;5039079;28;20229;-63
2022/02/07 02:45:59;;;;;;;4.20;1.30;;;7.40;99.90;;;;;;5040535;28;20617;-62
2022/02/07 02:48:27;;;;;;;3.15;1.30;;;7.40;99.90;;;;;;5052695;28;20694;-63
2022/02/07 02:50:56;;;;;;;1.65;1.17;;;7.40;99.90;;;;;;5052427;28;20241;-63
2022/02/07 02:53:24;;;;;;;2.65;1.33;;;7.40;99.90;;;;;;5047982;28;20216;-63
2022/02/07 02:55:53;;;;;;;3.53;1.55;;;7.30;99.90;;;;;;5052888;28;20544;-63
2022/02/07 02:58:24;;;;;;;3.92;1.75;;;7.40;99.90;;;;;;5052069;28;20626;-63
2022/02/07 03:00:53;;;;;;;1.92;1.60;;;7.40;99.90;;;;;;5051421;28;20225;-63
2022/02/07 03:03:20;;;;;;;1.88;1.23;;;7.40;99.90;;;;;;5051965;28;20229;-63
2022/02/07 03:05:48;;;;;;;3.05;1.40;;;7.50;99.90;;;;;;5052803;28;20225;-63
2022/02/07 03:08:16;;;;;;;6.78;2.78;;;7.50;99.90;;;;;;5052210;28;20591;-63
2022/02/07 03:10:53;;;;;;;3.70;2.65;;;7.40;99.90;;;;;;5052670;28;20567;-63
2022/02/07 03:13:44;;;;;;;2.08;1.23;;;7.40;99.90;;;;;;5051994;28;23161;-63
2022/02/07 03:18:55;;;;;;;2.47;1.42;;;7.50;99.90;;;;;;5041323;28;20229;-63
2022/02/07 03:21:22;;;;;;;5.10;1.83;;;7.50;99.90;;;;;;5050982;28;20560;-62
2022/02/07 03:23:49;;;;;;;6.20;1.80;;;7.40;99.90;;;;;;5052529;28;20217;-63
2022/02/07 03:26:18;;;;;;;3.47;1.33;;;7.30;99.90;;;;;;5052081;28;20225;-63
2022/02/07 03:28:48;;;;;;;2.75;1.60;;;7.30;99.90;;;;;;5052499;28;20300;-63
2022/02/07 03:31:15;;;;;;;2.35;1.40;;;7.30;99.90;;;;;;5038945;28;20231;-63
2022/02/07 03:33:42;;;;;;;2.33;1.73;;;7.30;99.90;;;;;;5052174;28;20239;-63
2022/02/07 03:36:10;;;;;;;2.03;1.20;;;7.40;99.90;;;;;;5052000;28;20221;-62
2022/02/07 03:38:37;;;;;;;4.47;1.90;;;7.40;99.90;;;;;;5052269;28;20580;-63
2022/02/07 03:41:05;;;;;;;2.20;1.55;;;7.40;99.90;;;;;;5051852;28;20666;-63
2022/02/07 03:43:32;;;;;;;2.83;2.28;;;7.50;99.90;;;;;;5047581;28;20237;-63
2022/02/07 03:46:01;;;;;;;6.50;1.90;;;7.50;99.90;;;;;;5040248;28;20228;-62
2022/02/07 03:48:28;;;;;;;5.20;1.88;;;7.50;99.90;;;;;;5051717;28;20231;-63
2022/02/07 03:50:55;;;;;;;4.85;1.70;;;7.50;99.90;;;;;;5053102;28;20243;-63
2022/02/07 03:53:22;;;;;;;6.07;1.40;;;7.50;99.90;;;;;;5046576;28;20235;-63
2022/02/07 03:55:49;;;;;;;2.78;1.30;;;7.50;99.90;;;;;;5048891;28;20231;-63
2022/02/07 03:58:20;;;;;;;2.58;1.65;;;7.50;99.90;;;;;;5055983;28;20225;-63
2022/02/07 04:00:52;;;;;;;6.18;2.17;;;7.50;99.90;;;;;;5055747;28;20235;-63
2022/02/07 04:03:25;;;;;;;5.03;2.10;;;7.40;99.90;;;;;;5055794;28;20543;-62
2022/02/07 04:05:55;;;;;;;4.20;1.63;;;7.40;99.90;;;;;;5043225;28;20231;-63
2022/02/07 04:08:28;;;;;;;6.47;1.50;;;7.30;99.90;;;;;;5055388;28;20221;-63
2022/02/07 04:11:00;;;;;;;5.65;2.10;;;7.20;99.90;;;;;;5055945;28;20221;-63
2022/02/07 04:13:30;;;;;;;3.35;1.50;;;7.30;99.90;;;;;;5055311;28;20237;-63
2022/02/07 04:15:57;;;;;;;4.82;1.80;;;7.30;99.90;;;;;;5055848;28;20225;-63
2022/02/07 04:18:29;;;;;;;2.28;1.20;;;7.40;99.90;;;;;;5055270;28;20237;-63
2022/02/07 04:20:56;;;;;;;5.20;2.28;;;7.40;99.90;;;;;;5055661;28;20260;-63
2022/02/07 04:23:23;;;;;;;4.35;2.08;;;7.40;99.90;;;;;;5055306;28;20602;-63
2022/02/07 04:25:50;;;;;;;6.80;1.98;;;7.30;99.90;;;;;;5055664;28;20283;-63
2022/02/07 04:28:17;;;;;;;4.18;2.10;;;7.40;99.90;;;;;;5055097;28;20217;-63
2022/02/07 04:30:44;;;;;;;3.58;1.33;;;7.40;99.90;;;;;;5055469;28;20237;-63
2022/02/07 04:33:11;;;;;;;3.30;1.63;;;7.40;99.90;;;;;;5055026;28;20224;-63
2022/02/07 04:35:39;;;;;;;4.18;1.88;;;7.40;99.90;;;;;;5055284;28;20228;-63
2022/02/07 04:38:06;;;;;;;2.17;1.45;;;7.40;99.90;;;;;;5055379;28;20315;-63
2022/02/07 04:40:33;;;;;;;3.25;1.45;;;7.40;99.90;;;;;;5054892;28;20668;-63
2022/02/07 04:43:00;;;;;;;3.20;1.70;;;7.40;99.90;;;;;;5055209;28;20239;-63
2022/02/07 04:45:38;;;;;;;2.10;1.70;;;7.20;99.90;;;;;;5054570;28;20221;-64
2022/02/07 04:48:37;;;;;;;3.00;1.25;;;7.20;99.90;;;;;;5041969;28;20221;-63
2022/02/07 04:54:08;;;;;;;1.80;1.67;;;7.30;99.90;;;;;;5047804;28;20228;-63
2022/02/07 04:59:23;;;;;;;4.90;1.90;;;7.30;99.90;;;;;;5054876;28;20605;-64
2022/02/07 05:01:52;;;;;;;1.92;1.75;;;7.30;99.90;;;;;;5053987;28;20233;-63
2022/02/07 05:04:33;;;;;;;2.05;1.50;;;7.30;99.90;;;;;;5042132;28;20229;-63
2022/02/07 05:15:13;;;;;;;3.55;1.90;;;7.40;99.90;;;;;;5054886;28;20246;-64
2022/02/07 05:17:41;;;;;;;4.00;2.00;;;7.40;99.90;;;;;;5054181;28;20266;-64
2022/02/07 05:20:09;;;;;;;3.50;2.10;;;7.50;99.90;;;;;;5054419;28;20245;-64
2022/02/07 05:22:38;;;;;;;3.47;1.77;;;7.50;99.90;;;;;;5053786;28;20236;-63
2022/02/07 05:25:06;;;;;;;3.42;2.00;;;7.50;99.90;;;;;;5054536;28;20579;-63
2022/02/07 05:27:33;;;;;;;4.45;2.20;;;7.50;99.90;;;;;;5054202;28;20228;-63
2022/02/07 05:30:01;;;;;;;7.00;2.40;;;7.50;99.90;;;;;;5052600;28;20229;-64
2022/02/07 05:32:28;;;;;;;3.35;2.15;;;7.50;99.90;;;;;;5053501;28;20233;-64
2022/02/07 05:34:55;;;;;;;6.20;2.20;;;7.60;99.90;;;;;;5054464;28;20221;-64
2022/02/07 05:37:22;;;;;;;3.92;2.25;;;7.60;99.90;;;;;;5053857;28;20233;-64
2022/02/07 05:39:55;;;;;;;3.05;2.00;;;7.60;99.90;;;;;;5054362;28;20228;-64
2022/02/07 05:42:22;;;;;;;2.95;1.58;;;7.50;99.90;;;;;;5052440;28;20572;-64
2022/02/07 05:44:49;;;;;;;5.70;1.70;;;7.60;99.90;;;;;;5052322;28;20227;-63
2022/02/07 05:47:16;;;;;;;4.30;1.73;;;7.60;99.90;;;;;;5052357;28;20232;-63
2022/02/07 05:49:43;;;;;;;2.38;1.73;;;7.60;99.90;;;;;;5051658;28;20674;-63
2022/02/07 05:52:10;;;;;;;3.35;1.55;;;7.70;99.90;;;;;;5052296;28;20213;-63
2022/02/07 05:54:37;;;;;;;8.70;2.65;;;7.60;99.90;;;;;;5051555;28;20523;-63
2022/02/07 05:57:06;;;;;;;3.58;1.70;;;7.60;99.90;;;;;;5053995;28;20224;-63
2022/02/07 05:59:32;;;;;;;3.08;1.63;;;7.60;99.90;;;;;;5053644;28;20221;-64
2022/02/07 06:01:59;;;;;;;1.67;1.50;;;7.60;99.90;;;;;;5054101;28;20221;-63
2022/02/07 06:04:26;;;;;;;5.47;2.30;;;7.60;99.90;;;;;;5053216;28;20232;-63
2022/02/07 06:06:53;;;;;;;7.70;1.75;;;7.60;99.90;;;;;;5053931;28;20221;-63
2022/02/07 06:09:20;;;;;;;5.25;1.83;;;7.60;99.90;;;;;;5053428;28;20225;-63
2022/02/07 06:11:47;;;;;;;5.82;2.10;;;7.60;99.90;;;;;;5053778;28;20228;-63
2022/02/07 06:14:15;;;;;;;6.00;1.80;;;7.60;99.90;;;;;;5052685;28;20567;-63
2022/02/07 06:16:44;;;;;;;6.40;2.15;;;7.60;99.90;;;;;;5053371;28;20217;-63
2022/02/07 06:19:10;;;;;;;5.65;2.35;;;7.70;99.90;;;;;;5053662;28;20221;-63
2022/02/07 06:21:38;;;;;;;5.97;1.90;;;7.70;99.90;;;;;;5052841;28;20232;-63
2022/02/07 06:24:06;;;;;;;5.25;1.77;;;7.70;99.90;;;;;;5053616;28;20224;-63
2022/02/07 06:26:33;;;;;;;2.95;1.50;;;7.70;99.90;;;;;;5053224;28;20240;-64
2022/02/07 06:29:02;;;;;;;5.35;1.98;;;7.70;99.90;;;;;;5053438;28;20217;-63
2022/02/07 06:31:30;;;;;;;8.70;3.00;;;7.60;99.90;;;;;;5052917;28;20224;-63
2022/02/07 06:33:57;;;;;;;5.25;2.00;;;7.60;99.90;;;;;;5053398;28;20243;-63
2022/02/07 06:36:23;;;;;;;2.90;1.50;;;7.60;99.90;;;;;;5052822;28;20224;-62
2022/02/07 06:38:50;;;;;;;5.25;2.45;;;7.50;99.90;;;;;;5053245;28;20229;-63
2022/02/07 06:41:17;;;;;;;3.00;1.77;;;7.50;99.90;;;;;;5053108;28;20315;-63
2022/02/07 06:43:44;;;;;;;6.57;3.95;;;7.50;99.90;;;;;;5050022;28;21489;-63
2022/02/07 06:46:11;;;;;;;4.20;2.75;;;7.60;99.90;;;;;;5033237;28;20232;-63
2022/02/07 06:48:40;;;;;;;4.82;2.20;;;7.60;99.90;;;;;;5032645;28;20688;-62
2022/02/07 06:51:08;;;;;;;2.47;1.40;;;7.60;99.90;;;;;;5036536;28;20221;-63
2022/02/07 06:53:35;;;;;;;5.07;2.05;;;7.60;99.90;;;;;;5052559;28;20710;-62
2022/02/07 06:56:02;;;;;;;5.97;2.33;;;7.60;99.90;;;;;;5053105;28;20213;-62
2022/02/07 06:58:29;;;;;;;3.17;1.88;;;7.60;99.90;;;;;;5052534;28;20229;-63
2022/02/07 07:00:56;;;;;;;9.07;1.95;;;7.70;99.90;;;;;;5052755;28;20225;-62
2022/02/07 07:03:24;;;;;;;3.17;1.55;;;7.70;99.90;;;;;;5052751;28;20527;-63
2022/02/07 07:05:54;;;;;;;7.32;2.55;;;7.70;99.90;;;;;;5052632;28;20914;-64
2022/02/07 07:08:21;;;;;;;5.85;3.20;;;7.70;99.90;;;;;;5052585;28;20698;-63
2022/02/07 07:10:48;;;;;;;5.70;2.05;;;7.70;99.90;;;;;;5052382;28;20229;-63
2022/02/07 07:13:21;;;;;;;4.32;1.98;;;7.70;99.90;;;;;;5046147;28;20241;-63
2022/02/07 07:15:52;;;;;;;5.10;2.08;;;7.80;99.90;;;;;;5032537;28;20225;-64
2022/02/07 07:18:20;;;;;;;3.22;2.45;;;7.80;99.90;;;;;;5032821;28;20728;-63
2022/02/07 07:20:48;;;;;;;8.35;3.50;;;7.80;99.90;;;;;;5032381;28;20259;-63
2022/02/07 07:23:16;;;;;;;6.35;3.67;;;7.80;99.90;;;;;;5032630;28;20226;-63
2022/02/07 07:25:45;;;;;;;10.07;4.10;;;7.80;99.90;;;;;;5031956;28;20226;-64
2022/02/07 07:28:14;;;;;;;6.90;4.28;;;7.80;99.90;;;;;;5032681;28;20217;-64
2022/02/07 07:30:46;;;;;;;6.20;4.28;;;7.80;99.90;;;;;;5032002;28;20265;-63
2022/02/07 07:33:16;;;;;;;6.53;3.65;;;7.80;99.90;;;;;;5032541;28;20511;-64
2022/02/07 07:35:43;;;;;;;7.30;4.45;;;7.70;99.90;;;;;;5032330;28;20225;-63
2022/02/07 07:38:10;;;;;;;9.73;3.83;;;7.70;99.90;;;;;;5032690;28;20675;-64
2022/02/07 07:40:38;;;;;;;4.57;2.40;;;7.80;99.90;;;;;;5032055;28;20225;-63
2022/02/07 07:43:07;;;;;;;4.60;2.38;;;7.90;99.90;;;;;;5032622;28;20668;-63
2022/02/07 07:45:41;;;;;;;6.60;2.10;;;8.00;99.90;;;;;;5049746;28;20256;-63
2022/02/07 07:48:11;;;;;;;6.13;2.40;;;8.00;99.90;;;;;;5052546;28;20235;-63
2022/02/07 07:50:46;;;;;;;14.05;2.53;;;8.00;99.90;;;;;;5051863;28;20308;-64
2022/02/07 07:53:22;;;;;;;17.00;3.47;;;8.10;99.90;;;;;;5032516;28;20217;-64
2022/02/07 08:04:04;;;;;;;12.85;2.53;;;8.00;99.90;;;;;;5052155;28;20228;-64
2022/02/07 08:06:39;;;;;;;7.55;2.20;;;8.00;99.90;;;;;;5052274;28;20229;-63
2022/02/07 08:12:00;;;;;;;4.25;1.77;;;7.90;99.90;;;;;;5045980;28;20225;-64
2022/02/07 08:14:29;;;;;;;8.48;2.60;;;7.90;99.90;;;;;;5051901;28;20282;-64
2022/02/07 08:16:55;;;;;;;4.78;2.25;;;8.00;99.90;;;;;;5051685;28;20233;-63
2022/02/07 08:19:25;;;;;;;4.80;2.45;;;8.10;99.90;;;;;;5052118;28;20291;-62
2022/02/07 08:21:52;;;;;;;4.25;2.03;;;8.10;99.90;;;;;;5051493;28;20221;-64
2022/02/07 08:24:18;;;;;;;5.25;2.28;;;8.10;99.90;;;;;;5052131;28;20225;-64
2022/02/07 08:26:46;;;;;;;4.35;2.67;;;8.20;99.90;;;;;;5051755;28;20240;-63
2022/02/07 08:29:15;;;;;;;5.45;2.20;;;8.20;99.90;;;;;;5052250;28;20228;-63
2022/02/07 08:31:42;;;;;;;7.28;2.47;;;8.30;99.90;;;;;;5052009;28;20229;-63
2022/02/07 08:34:09;;;;;;;9.15;2.55;;;8.30;99.90;;;;;;5051839;28;20221;-63
2022/02/07 08:36:37;;;;;;;8.70;2.63;;;8.30;99.90;;;;;;5051881;28;20235;-63
2022/02/07 08:39:04;;;;;;;7.10;3.17;;;8.30;99.90;;;;;;5054672;28;20217;-63
2022/02/07 08:41:31;;;;;;;8.27;4.40;;;8.30;99.90;;;;;;5055408;28;20690;-63
2022/02/07 08:43:58;;;;;;;7.40;4.13;;;8.20;99.90;;;;;;5054890;28;20532;-63
2022/02/07 08:46:27;;;;;;;9.73;4.90;;;8.30;99.90;;;;;;5055500;28;20221;-63
2022/02/07 08:48:53;;;;;;;4.45;2.90;;;8.30;99.90;;;;;;5054874;28;20224;-64
2022/02/07 08:51:21;;;;;;;6.53;3.10;;;8.40;99.90;;;;;;5055218;28;20233;-64
2022/02/07 08:53:49;;;;;;;6.75;2.60;;;8.40;99.90;;;;;;5054959;28;20701;-64
2022/02/07 08:56:19;;;;;;;7.72;2.70;;;8.30;99.90;;;;;;5055134;28;20233;-64
2022/02/07 08:58:48;;;;;;;8.40;3.20;;;8.40;99.90;;;;;;5054866;28;20454;-64
2022/02/07 09:01:19;;;;;;;13.10;4.57;;;8.40;99.90;;;;;;5055188;28;20295;-64
2022/02/07 09:06:38;;;;;;;11.60;4.40;;;8.50;99.90;;;;;;5044524;28;20275;-64
2022/02/07 09:09:08;;;;;;;5.07;3.25;;;8.50;99.90;;;;;;5054660;28;20232;-64
2022/02/07 09:11:38;;;;;;;9.77;4.25;;;8.50;99.90;;;;;;5054794;28;20621;-64
2022/02/07 09:14:10;;;;;;;14.23;3.45;;;8.50;99.90;;;;;;5054392;28;20229;-63
2022/02/07 09:16:38;;;;;;;25.60;6.03;;;8.60;99.90;;;;;;5054880;28;20292;-64
2022/02/07 09:19:07;;;;;;;13.35;5.85;;;8.50;99.90;;;;;;5054472;28;20322;-63
2022/02/07 09:21:35;;;;;;;9.05;2.80;;;8.60;99.90;;;;;;5054826;28;20324;-63
2022/02/07 09:24:03;;;;;;;8.48;2.22;;;8.60;99.90;;;;;;5054085;28;20550;-63
2022/02/07 09:26:30;;;;;;;13.32;3.60;;;8.60;99.90;;;;;;5054607;28;20274;-63
2022/02/07 09:28:57;;;;;;;9.27;2.72;;;8.60;99.90;;;;;;5053687;28;20316;-63
2022/02/07 09:31:24;;;;;;;16.40;4.32;;;8.60;99.90;;;;;;5054586;28;20225;-63
2022/02/07 09:33:53;;;;;;;8.23;2.55;;;8.70;99.90;;;;;;5053989;28;20320;-64
2022/02/07 09:36:22;;;;;;;9.15;2.67;;;8.70;99.90;;;;;;5054456;28;20290;-63
2022/02/07 09:38:50;;;;;;;7.07;2.70;;;8.70;99.90;;;;;;5054217;28;20225;-63
2022/02/07 09:41:18;;;;;;;12.27;3.47;;;8.80;99.90;;;;;;5054256;28;20230;-63
2022/02/07 09:43:48;;;;;;;8.15;2.97;;;8.80;99.90;;;;;;5054108;28;20271;-63
2022/02/07 09:46:23;;;;;;;11.40;2.63;;;8.80;99.90;;;;;;5054163;28;20689;-63
2022/02/07 09:48:52;;;;;;;9.27;3.38;;;8.70;99.90;;;;;;5054047;28;20690;-63
2022/02/07 09:51:20;;;;;;;10.88;3.63;;;8.70;99.90;;;;;;5053687;28;20229;-63
2022/02/07 09:53:48;;;;;;;8.95;2.30;;;8.70;99.90;;;;;;5054120;28;20706;-63
2022/02/07 09:56:15;;;;;;;13.00;3.22;;;8.80;99.90;;;;;;5053430;28;20229;-64
2022/02/07 09:58:42;;;;;;;12.55;2.75;;;8.80;99.90;;;;;;5053966;28;20225;-63
2022/02/07 10:01:16;;;;;;;13.55;3.90;;;8.90;99.90;;;;;;5053501;28;20225;-63
2022/02/07 10:03:51;;;;;;;4.63;2.45;;;8.90;99.90;;;;;;5053726;28;20683;-63
2022/02/07 10:06:32;;;;;;;8.88;2.97;;;9.00;99.90;;;;;;5053570;28;20224;-63
2022/02/07 10:09:17;;;;;;;15.45;3.72;;;9.10;99.90;;;;;;5053507;28;20264;-63
2022/02/07 10:11:59;;;;;;;6.72;3.90;;;9.10;99.90;;;;;;5053767;28;20232;-63
2022/02/07 10:14:31;;;;;;;7.82;3.38;;;9.10;99.90;;;;;;5053242;28;20991;-63
2022/02/07 10:17:16;;;;;;;13.95;5.80;;;9.20;99.90;;;;;;5053788;28;20560;-63
2022/02/07 10:19:55;;;;;;;8.38;3.45;;;9.20;99.80;;;;;;5053645;28;20228;-63
2022/02/07 10:36:30;;;;;;;7.72;4.05;;;9.20;98.90;;;;;;5053881;28;20593;-64
2022/02/07 10:39:13;;;;;;;9.45;3.08;;;9.30;99.00;;;;;;5053168;28;20743;-63
2022/02/07 10:41:59;;;;;;;16.63;4.63;;;9.30;98.60;;;;;;5053333;28;20225;-63
2022/02/07 10:44:43;;;;;;;10.90;3.10;;;9.20;98.20;;;;;;5053043;28;20225;-64
2022/02/07 10:47:14;;;;;;;15.85;4.50;;;9.30;98.10;;;;;;5053073;28;20245;-64
2022/02/07 10:50:00;;;;;;;10.88;3.20;;;9.20;98.00;;;;;;5052762;28;20225;-62
2022/02/07 10:52:27;;;;;;;11.98;3.30;;;9.30;98.10;;;;;;5052623;28;20569;-61
2022/02/07 10:54:54;;;;;;;12.98;4.13;;;9.30;98.00;;;;;;5052842;28;20221;-62
2022/02/07 10:57:23;;;;;;;7.65;2.50;;;9.40;98.00;;;;;;5052957;28;20237;-63
2022/02/07 10:59:50;;;;;;;12.88;5.45;;;9.40;98.00;;;;;;5052135;28;20218;-64
2022/02/07 11:02:42;;;;;;;7.70;2.80;;;9.40;97.50;;;;;;5052816;28;20233;-63
2022/02/07 11:05:13;;;;;;;8.93;2.75;;;9.50;97.60;;;;;;5052822;28;20213;-63
2022/02/07 11:07:40;;;;;;;6.47;3.60;;;9.60;97.60;;;;;;5052987;28;20221;-64
2022/02/07 11:10:27;;;;;;;11.00;2.90;;;9.60;97.10;;;;;;5052845;28;20220;-64
2022/02/07 11:13:24;;;;;;;14.90;4.18;;;9.60;97.00;;;;;;5063542;28;20308;-64
2022/02/07 11:16:04;;;;;;;8.80;2.83;;;9.70;96.70;;;;;;5052366;28;20232;-64
2022/02/07 11:18:50;;;;;;;7.10;3.95;;;9.60;96.30;;;;;;5052493;28;20224;-62
2022/02/07 11:21:34;;;;;;;9.48;3.60;;;9.70;96.70;;;;;;5052488;28;20655;-62
2022/02/07 11:24:35;;;;;;;14.50;4.03;;;9.70;96.50;;;;;;5052133;28;20723;-63
2022/02/07 11:27:38;;;;;;;12.65;3.55;;;9.80;96.00;;;;;;5019872;28;20221;-63
2022/02/07 11:30:10;;;;;;;9.70;3.20;;;9.70;95.80;;;;;;5032236;28;20229;-64
2022/02/07 11:32:56;;;;;;;11.43;2.85;;;9.70;95.30;;;;;;5032688;28;20299;-63
2022/02/07 11:35:27;;;;;;;11.60;4.20;;;9.70;94.70;;;;;;5032525;28;20217;-64
2022/02/07 11:38:11;;;;;;;8.82;3.60;;;9.70;95.00;;;;;;5032670;28;20226;-63
2022/02/07 11:40:40;;;;;;;7.40;2.97;;;9.70;94.70;;;;;;5032972;28;20249;-63
2022/02/07 11:43:13;;;;;;;6.50;3.38;;;9.70;94.60;;;;;;5032107;28;21006;-63
2022/02/07 11:45:51;;;;;;;7.13;2.83;;;9.80;94.80;;;;;;5050932;28;20229;-63
2022/02/07 11:48:20;;;;;;;12.98;3.47;;;9.80;94.80;;;;;;5065081;28;20267;-63
2022/02/07 11:50:47;;;;;;;8.70;3.30;;;9.80;94.80;;;;;;5051838;28;20705;-63
2022/02/07 11:53:16;;;;;;;14.43;3.67;;;9.80;94.60;;;;;;5052512;28;20231;-62
2022/02/07 11:55:47;;;;;;;10.10;3.60;;;9.80;94.60;;;;;;5051850;28;20300;-63
2022/02/07 11:58:22;;;;;;;16.60;5.65;;;9.80;94.70;;;;;;5052484;28;20243;-63
2022/02/07 12:00:56;;;;;;;10.65;3.08;;;9.90;94.20;;;;;;5052002;28;21335;-64
2022/02/07 12:03:25;;;;;;;12.93;4.70;;;9.80;94.40;;;;;;5052237;28;20224;-64
2022/02/07 12:05:53;;;;;;;11.45;4.63;;;9.80;94.20;;;;;;5051845;28;21019;-64
2022/02/07 12:08:22;;;;;;;11.32;4.57;;;9.80;93.80;;;;;;5052210;28;20221;-63
2022/02/07 12:11:06;;;;;;;9.05;3.70;;;9.80;93.30;;;;;;5051635;28;20235;-64
2022/02/07 12:13:35;;;;;;;12.55;4.07;;;9.80;92.80;;;;;;5054268;28;20222;-64
2022/02/07 12:16:12;;;;;;;9.10;4.25;;;9.70;93.00;;;;;;5055991;28;20217;-64
2022/02/07 12:18:39;;;;;;;12.30;3.80;;;9.70;93.70;;;;;;5055369;28;20613;-64
2022/02/07 12:21:24;;;;;;;10.45;3.15;;;9.70;94.10;;;;;;5055748;28;20236;-64
2022/02/07 12:23:56;;;;;;;13.77;3.22;;;9.80;94.40;;;;;;5055237;28;20229;-63
2022/02/07 12:26:24;;;;;;;13.20;4.20;;;9.80;94.80;;;;;;5055711;28;20283;-63
2022/02/07 12:28:57;;;;;;;15.35;4.95;;;9.80;95.20;;;;;;5055233;28;20683;-64
2022/02/07 12:31:27;;;;;;;13.98;4.15;;;9.80;94.90;;;;;;5055456;28;20229;-63
2022/02/07 12:33:57;;;;;;;8.40;4.20;;;9.90;94.40;;;;;;5055327;28;20217;-63
2022/02/07 12:36:25;;;;;;;10.43;3.67;;;9.90;94.20;;;;;;5055565;28;20320;-64
2022/02/07 12:38:53;;;;;;;8.93;3.55;;;9.90;93.70;;;;;;5055109;28;20217;-63
2022/02/07 12:41:24;;;;;;;19.05;4.70;;;9.90;93.20;;;;;;5055413;28;20228;-64
2022/02/07 12:43:53;;;;;;;8.77;3.30;;;9.80;92.70;;;;;;5054811;28;20279;-63
2022/02/07 12:46:22;;;;;;;12.85;3.65;;;9.90;92.00;;;;;;5055423;28;20627;-64
2022/02/07 12:48:56;;;;;;;9.90;3.40;;;10.00;90.90;;;;;;5054781;28;20229;-64
2022/02/07 12:51:25;;;;;;;15.32;3.72;;;10.00;91.10;;;;;;5055184;28;20308;-64
2022/02/07 12:53:53;;;;;;;13.18;3.72;;;10.00;90.00;;;;;;5054954;28;20678;-64
2022/02/07 12:56:21;;;;;;;12.07;4.50;;;9.90;90.10;;;;;;5055009;28;20697;-64
2022/02/07 12:58:50;;;;;;;14.90;5.10;;;10.00;89.30;;;;;;5054770;28;20554;-64
2022/02/07 13:01:26;;;;;;;11.80;4.43;;;10.00;89.50;;;;;;5037398;28;20233;-64
2022/02/07 13:03:58;;;;;;;11.73;4.40;;;10.00;89.90;;;;;;5033587;28;20225;-62
2022/02/07 13:06:27;;;;;;;18.27;5.22;;;10.00;89.60;;;;;;5050271;28;20225;-64
2022/02/07 13:08:56;;;;;;;16.02;5.63;;;10.00;90.00;;;;;;5053748;28;20225;-64
2022/02/07 13:11:28;;;;;;;6.55;3.20;;;10.00;88.50;;;;;;5042617;28;20641;-64
2022/02/07 13:13:55;;;;;;;10.10;3.53;;;10.10;89.10;;;;;;5034189;28;20225;-64
2022/02/07 13:16:23;;;;;;;14.45;4.47;;;10.10;88.10;;;;;;5054465;28;20233;-64
2022/02/07 13:18:50;;;;;;;10.68;4.85;;;10.00;87.70;;;;;;5054286;28;20626;-64
2022/02/07 13:21:19;;;;;;;10.05;3.92;;;10.00;88.10;;;;;;5054082;28;20256;-63
2022/02/07 13:23:47;;;;;;;10.32;4.10;;;10.00;87.90;;;;;;5053888;28;20229;-63
2022/02/07 13:26:16;;;;;;;9.65;4.35;;;9.90;90.10;;;;;;5054684;28;20221;-63
2022/02/07 13:28:45;;;;;;;10.13;3.35;;;10.00;90.30;;;;;;5054265;28;20622;-63
2022/02/07 13:31:12;;;;;;;15.57;4.35;;;10.00;90.50;;;;;;5048000;28;20623;-63
2022/02/07 13:33:49;;;;;;;21.15;5.05;;;10.00;89.80;;;;;;5041995;28;20309;-63
2022/02/07 13:36:28;;;;;;;11.65;4.70;;;10.00;89.20;;;;;;5047632;28;20239;-63
2022/02/07 13:39:02;;;;;;;12.68;4.55;;;10.00;89.20;;;;;;5052242;28;20620;-63
2022/02/07 13:41:29;;;;;;;7.90;2.88;;;10.10;88.10;;;;;;5033544;28;20232;-63
2022/02/07 13:43:59;;;;;;;9.75;3.80;;;10.10;87.70;;;;;;5037212;28;20236;-63
2022/02/07 13:46:30;;;;;;;9.95;4.32;;;10.10;88.40;;;;;;5033813;28;20226;-63
2022/02/07 13:48:59;;;;;;;12.88;3.88;;;10.10;87.50;;;;;;5033861;28;20226;-63
2022/02/07 13:51:29;;;;;;;11.13;5.20;;;10.10;87.30;;;;;;5040087;28;20222;-63
2022/02/07 13:53:57;;;;;;;7.68;4.30;;;10.10;88.90;;;;;;5053775;28;20225;-63
2022/02/07 13:56:33;;;;;;;10.65;4.38;;;10.10;90.50;;;;;;5053891;28;20221;-63
2022/02/07 13:59:14;;;;;;;7.78;3.05;;;10.00;91.30;;;;;;5053901;28;20263;-63
2022/02/07 14:01:43;;;;;;;7.95;3.50;;;10.00;91.50;;;;;;5053458;28;20233;-63
2022/02/07 14:04:22;;;;;;;10.10;4.28;;;9.90;92.80;;;;;;5053889;28;20241;-63
2022/02/07 14:07:15;;;;;;;12.07;3.92;;;9.80;92.90;;;;;;5053321;28;20228;-63
2022/02/07 14:09:42;;;;;;;13.95;5.05;;;9.80;92.90;;;;;;5053498;28;20575;-63
2022/02/07 14:12:13;;;;;;;13.70;5.32;;;9.70;93.00;;;;;;5053682;28;20221;-63
2022/02/07 14:14:40;;;;;;;7.65;3.58;;;9.60;93.40;;;;;;5053293;28;20283;-63
2022/02/07 14:17:07;;;;;;;7.95;3.22;;;9.70;93.40;;;;;;5053714;28;20303;-63
2022/02/07 14:19:38;;;;;;;11.73;4.00;;;9.70;93.20;;;;;;5053624;28;20626;-62
2022/02/07 14:22:06;;;;;;;5.05;2.80;;;9.70;93.70;;;;;;5053509;28;21249;-64
2022/02/07 14:24:35;;;;;;;12.48;4.30;;;9.70;93.50;;;;;;5053342;28;20236;-63
2022/02/07 14:27:02;;;;;;;11.18;4.10;;;9.60;93.00;;;;;;5053073;28;20232;-64
2022/02/07 14:29:29;;;;;;;11.55;3.97;;;9.60;93.40;;;;;;5053425;28;20229;-64
2022/02/07 14:31:56;;;;;;;7.70;2.97;;;9.50;94.70;;;;;;5051407;28;20620;-64
2022/02/07 14:34:23;;;;;;;13.80;3.72;;;9.50;95.60;;;;;;5052992;28;20308;-64
2022/02/07 14:36:50;;;;;;;8.85;3.05;;;9.40;95.70;;;;;;5052479;28;20229;-63
2022/02/07 14:39:17;;;;;;;4.57;3.40;;;9.30;96.00;;;;;;5047497;28;20230;-64
2022/02/07 14:41:46;;;;;;;9.75;3.22;;;9.30;96.10;;;;;;5032896;28;20603;-62
2022/02/07 14:44:20;;;;;;;8.77;3.10;;;9.20;95.90;;;;;;5033272;28;20233;-63